CheckWX is a tool to help pilots better visualize weather data.  It is not intended as a substitute for an official pre-flight weather briefing.

07:29:04 UTC

HEMM TAF
Mersa Matruh Airport
Mersa Matruh, Egypt
TAF HEMM 170500Z 1706/1812 32012KT 9999 FEW020

Jun-17@
06:00 UTC

Jun-17 @ 06:00 UTC

Jun-18@
12:00 UTC

Jun-18 @ 12:00 UTC

TAF HEMM 170500Z 1706/1812 32012KT 9999 FEW020
Wind
  • 320° at 12 KTS
Cloud Levels
  • Few at 2,000' AGL